createdAt,value
2022-11-27T00:00:58.894Z,99511.19
2022-11-27T00:03:26.330Z,99494.47
2022-11-27T00:05:57.474Z,99496.41
2022-11-27T00:08:27.558Z,99506.31
2022-11-27T00:10:54.339Z,99503.03
2022-11-27T00:13:20.996Z,99510.16
2022-11-27T00:15:47.716Z,99504.44
2022-11-27T00:18:14.434Z,99497.88
2022-11-27T00:20:41.065Z,99485.31
2022-11-27T00:23:07.745Z,99475.16
2022-11-27T00:25:34.989Z,99481.22
2022-11-27T00:28:01.654Z,99475.22
2022-11-27T00:30:28.286Z,99465.34
2022-11-27T00:32:54.891Z,99469.22
2022-11-27T00:35:21.529Z,99478.56
2022-11-27T00:37:48.179Z,99481.06
2022-11-27T00:40:15.642Z,99482.69
2022-11-27T00:42:42.271Z,99482.69
2022-11-27T00:45:09.581Z,99482.47
2022-11-27T00:47:36.173Z,99486.84
2022-11-27T00:50:04.335Z,99480.84
2022-11-27T00:52:31.254Z,99490.44
2022-11-27T00:54:58.049Z,99479.47
2022-11-27T00:57:25.972Z,99483.63
2022-11-27T00:59:52.590Z,99490.75
2022-11-27T01:02:19.199Z,99486.66
2022-11-27T01:04:47.189Z,99481.16
2022-11-27T01:07:14.000Z,99481.44
2022-11-27T01:09:41.110Z,99485.59
2022-11-27T01:12:07.907Z,99473.25
2022-11-27T01:14:34.998Z,99480.38
2022-11-27T01:17:02.129Z,99483.72
2022-11-27T01:19:28.742Z,99485.63
2022-11-27T01:21:55.415Z,99481.50
2022-11-27T01:24:23.481Z,99472.22
2022-11-27T01:26:50.812Z,99486.47
2022-11-27T01:29:17.742Z,99482.66
2022-11-27T01:31:44.643Z,99482.13
2022-11-27T01:34:15.373Z,99495.84
2022-11-27T01:36:42.270Z,99492.59
2022-11-27T01:39:16.204Z,99479.94
2022-11-27T01:41:43.265Z,99485.72
2022-11-27T01:44:25.090Z,99485.72
2022-11-27T01:47:06.111Z,99490.41
2022-11-27T01:49:35.937Z,99481.06
2022-11-27T01:52:15.515Z,99490.41
2022-11-27T01:54:48.340Z,99497.53
2022-11-27T01:57:19.149Z,99495.88
2022-11-27T01:59:48.167Z,99500.56
2022-11-27T02:02:15.111Z,99497.53
2022-11-27T02:04:42.045Z,99493.66
2022-11-27T02:07:09.298Z,99503.56
2022-11-27T02:09:35.973Z,99491.72
2022-11-27T02:12:02.572Z,99506.03
2022-11-27T02:14:53.610Z,99520.59
2022-11-27T02:17:45.980Z,99518.66
2022-11-27T02:20:24.669Z,99524.97
2022-11-27T02:23:08.026Z,99519.50
2022-11-27T02:25:49.645Z,99522.22
2022-11-27T02:28:41.091Z,99530.47
2022-11-27T02:31:18.825Z,99531.06
2022-11-27T02:33:53.157Z,99521.69
2022-11-27T02:36:24.365Z,99521.69
2022-11-27T02:38:55.632Z,99528.28
2022-11-27T02:41:30.574Z,99515.06
2022-11-27T02:43:59.945Z,99516.97
2022-11-27T02:46:28.900Z,99502.94
2022-11-27T02:48:58.750Z,99510.09
2022-11-27T02:51:39.155Z,99509.78
2022-11-27T02:54:10.294Z,99515.03
2022-11-27T02:56:37.391Z,99516.41
2022-11-27T02:59:09.917Z,99523.56
2022-11-27T03:01:41.318Z,99526.03
2022-11-27T03:04:13.257Z,99523.56
2022-11-27T03:06:46.458Z,99517.81
2022-11-27T03:09:29.427Z,99522.19
2022-11-27T03:11:56.482Z,99526.88
2022-11-27T03:14:24.897Z,99517.81
2022-11-27T03:17:10.185Z,99517.22
2022-11-27T03:19:50.603Z,99523.28
2022-11-27T03:22:17.797Z,99521.94
2022-11-27T03:24:44.685Z,99519.75
2022-11-27T03:27:15.416Z,99525.25
2022-11-27T03:29:48.709Z,99507.97
2022-11-27T03:32:16.090Z,99505.47
2022-11-27T03:34:43.552Z,99509.06
2022-11-27T03:37:10.462Z,99507.38
2022-11-27T03:39:37.293Z,99514.53
2022-11-27T03:42:31.433Z,99505.47
2022-11-27T03:45:10.168Z,99506.88
2022-11-27T03:47:48.995Z,99496.72
2022-11-27T03:50:46.433Z,99508.50
2022-11-27T03:53:51.295Z,99514.00
2022-11-27T03:56:36.146Z,99498.34
2022-11-27T03:59:15.450Z,99497.00
2022-11-27T04:01:42.644Z,99499.75
2022-11-27T04:04:09.631Z,99495.38
2022-11-27T04:06:36.371Z,99515.66
2022-11-27T04:09:04.056Z,99520.06
2022-11-27T04:11:31.090Z,99529.66
2022-11-27T04:13:57.997Z,99528.81
2022-11-27T04:16:24.681Z,99526.34
2022-11-27T04:18:51.467Z,99537.31
2022-11-27T04:21:19.004Z,99541.72
2022-11-27T04:23:45.782Z,99537.56
2022-11-27T04:26:12.785Z,99540.03
2022-11-27T04:28:39.445Z,99536.19
2022-11-27T04:31:06.123Z,99540.03
2022-11-27T04:33:32.961Z,99540.84
2022-11-27T04:35:59.689Z,99547.94
2022-11-27T04:38:26.285Z,99546.31
2022-11-27T04:40:57.810Z,99554.53
2022-11-27T04:43:24.516Z,99550.06
2022-11-27T04:45:51.166Z,99547.09
2022-11-27T04:48:17.821Z,99546.78
2022-11-27T04:50:46.794Z,99545.63
2022-11-27T04:53:13.442Z,99549.72
2022-11-27T04:55:40.110Z,99550.50
2022-11-27T04:58:06.774Z,99546.38
2022-11-27T05:00:33.529Z,99560.31
2022-11-27T05:03:00.364Z,99563.06
2022-11-27T05:05:27.002Z,99557.84
2022-11-27T05:07:53.760Z,99552.63
2022-11-27T05:10:20.500Z,99554.00
2022-11-27T05:12:47.152Z,99559.25
2022-11-27T05:15:13.799Z,99556.22
2022-11-27T05:17:40.434Z,99565.00
2022-11-27T05:20:07.937Z,99568.00
2022-11-27T05:22:34.573Z,99570.47
2022-11-27T05:25:01.234Z,99558.69
2022-11-27T05:27:28.969Z,99564.16
2022-11-27T05:29:55.549Z,99572.41
2022-11-27T05:32:23.591Z,99581.72
2022-11-27T05:34:50.492Z,99570.75
2022-11-27T05:37:19.627Z,99590.22
2022-11-27T05:39:47.422Z,99580.31
2022-11-27T05:42:14.191Z,99575.66
2022-11-27T05:44:41.038Z,99565.78
2022-11-27T05:47:07.903Z,99574.00
2022-11-27T05:49:34.651Z,99580.03
2022-11-27T05:52:01.239Z,99578.66
2022-11-27T05:54:31.530Z,99575.91
2022-11-27T05:56:58.146Z,99559.97
2022-11-27T05:59:24.750Z,99572.03
2022-11-27T06:01:51.410Z,99576.13
2022-11-27T06:04:18.342Z,99570.06
2022-11-27T06:06:45.082Z,99564.03
2022-11-27T06:09:13.496Z,99587.59
2022-11-27T06:11:41.433Z,99585.38
2022-11-27T06:14:11.525Z,99597.66
2022-11-27T06:16:38.458Z,99581.44
2022-11-27T06:19:05.115Z,99577.59
2022-11-27T06:21:31.777Z,99583.59
2022-11-27T06:23:58.520Z,99581.09
2022-11-27T06:26:29.074Z,99561.81
2022-11-27T06:28:57.270Z,99574.97
2022-11-27T06:31:29.906Z,99591.94
2022-11-27T06:33:57.450Z,99589.97
2022-11-27T06:36:28.360Z,99576.50
2022-11-27T06:38:55.488Z,99573.19
2022-11-27T06:41:24.807Z,99572.91
2022-11-27T06:43:51.651Z,99579.69
2022-11-27T06:46:20.389Z,99570.09
2022-11-27T06:48:49.124Z,99584.03
2022-11-27T06:51:18.357Z,99598.75
2022-11-27T06:53:46.463Z,99597.09
2022-11-27T06:56:15.538Z,99595.69
2022-11-27T06:58:43.329Z,99576.44
2022-11-27T07:01:13.746Z,99584.94
2022-11-27T07:03:40.888Z,99579.94
2022-11-27T07:06:09.779Z,99582.94
2022-11-27T07:08:37.103Z,99584.53
2022-11-27T07:11:04.680Z,99591.66
2022-11-27T07:13:31.570Z,99589.44
2022-11-27T07:16:06.809Z,99594.91
2022-11-27T07:18:39.770Z,99612.34
2022-11-27T07:21:06.411Z,99621.06
2022-11-27T07:23:34.138Z,99623.25
2022-11-27T07:26:06.450Z,99621.81
2022-11-27T07:28:33.337Z,99619.34
2022-11-27T07:31:00.482Z,99609.41
2022-11-27T07:33:27.258Z,99612.38
2022-11-27T07:36:02.634Z,99613.72
2022-11-27T07:38:29.278Z,99606.91
2022-11-27T07:40:58.948Z,99598.94
2022-11-27T07:43:25.549Z,99592.66
2022-11-27T07:45:52.345Z,99592.31
2022-11-27T07:48:19.119Z,99587.66
2022-11-27T07:50:45.832Z,99591.16
2022-11-27T07:53:12.448Z,99590.06
2022-11-27T07:55:40.530Z,99592.50
2022-11-27T07:58:08.482Z,99603.59
2022-11-27T08:00:35.863Z,99604.63
2022-11-27T08:03:03.245Z,99601.03
2022-11-27T08:05:29.992Z,99605.19
2022-11-27T08:08:00.024Z,99614.56
2022-11-27T08:10:27.152Z,99622.19
2022-11-27T08:12:53.819Z,99621.69
2022-11-27T08:15:20.498Z,99601.47
2022-11-27T08:17:47.841Z,99602.50
2022-11-27T08:20:14.434Z,99609.69
2022-11-27T08:22:41.164Z,99607.44
2022-11-27T08:25:08.362Z,99599.78
2022-11-27T08:27:36.303Z,99600.28
2022-11-27T08:30:04.434Z,99598.13
2022-11-27T08:32:31.280Z,99596.47
2022-11-27T08:34:57.940Z,99591.25
2022-11-27T08:37:24.604Z,99603.53
2022-11-27T08:39:51.277Z,99596.31
2022-11-27T08:42:17.931Z,99576.06
2022-11-27T08:44:44.552Z,99566.28
2022-11-27T08:47:11.211Z,99572.00
2022-11-27T08:49:39.800Z,99574.16
2022-11-27T08:52:08.234Z,99581.56
2022-11-27T08:54:35.119Z,99578.81
2022-11-27T08:57:01.872Z,99574.50
2022-11-27T08:59:28.484Z,99550.69
2022-11-27T09:01:55.150Z,99544.41
2022-11-27T09:04:21.838Z,99552.28
2022-11-27T09:06:56.825Z,99550.34
2022-11-27T09:09:25.079Z,99557.47
2022-11-27T09:11:54.494Z,99560.81
2022-11-27T09:14:21.286Z,99569.66
2022-11-27T09:16:48.142Z,99561.44
2022-11-27T09:19:14.887Z,99572.19
2022-11-27T09:21:41.497Z,99554.66
2022-11-27T09:24:09.330Z,99572.81
2022-11-27T09:26:35.966Z,99583.00
2022-11-27T09:29:02.833Z,99575.94
2022-11-27T09:31:29.579Z,99583.16
2022-11-27T09:33:57.863Z,99586.81
2022-11-27T09:36:26.372Z,99574.84
2022-11-27T09:38:53.629Z,99573.50
2022-11-27T09:41:35.785Z,99576.25
2022-11-27T09:44:25.938Z,99576.31
2022-11-27T09:46:54.517Z,99570.09
2022-11-27T09:49:31.906Z,99561.66
2022-11-27T09:52:15.584Z,99568.13
2022-11-27T09:54:55.095Z,99564.09
2022-11-27T09:57:31.285Z,99563.38
2022-11-27T10:00:03.917Z,99571.34
2022-11-27T10:02:35.406Z,99566.69
2022-11-27T10:05:14.029Z,99552.22
2022-11-27T10:08:06.942Z,99553.88
2022-11-27T10:10:57.133Z,99557.72
2022-11-27T10:13:41.894Z,99546.75
2022-11-27T10:16:20.667Z,99562.38
2022-11-27T10:19:31.590Z,99562.16
2022-11-27T10:22:19.470Z,99559.69
2022-11-27T10:24:50.404Z,99569.28
2022-11-27T10:27:31.949Z,99584.09
2022-11-27T10:30:01.530Z,99585.75
2022-11-27T10:32:54.584Z,99585.22
2022-11-27T10:35:23.627Z,99586.66
2022-11-27T10:37:56.211Z,99588.84
2022-11-27T10:40:38.606Z,99589.69
2022-11-27T10:43:22.225Z,99578.72
2022-11-27T10:45:54.062Z,99583.63
2022-11-27T10:48:21.149Z,99592.97
2022-11-27T10:50:48.282Z,99591.34
2022-11-27T10:53:28.801Z,99591.69
2022-11-27T10:56:01.654Z,99581.31
2022-11-27T10:58:33.715Z,99562.41
2022-11-27T11:01:07.103Z,99568.50
2022-11-27T11:03:34.690Z,99575.91
2022-11-27T11:06:23.659Z,99571.00
2022-11-27T11:09:27.181Z,99563.03
2022-11-27T11:11:53.909Z,99566.59
2022-11-27T11:14:26.455Z,99559.19
2022-11-27T11:16:54.824Z,99563.34
2022-11-27T11:19:38.034Z,99565.00
2022-11-27T11:22:16.340Z,99552.97
2022-11-27T11:24:53.471Z,99555.97
2022-11-27T11:27:32.427Z,99555.47
2022-11-27T11:30:01.124Z,99552.47
2022-11-27T11:32:31.513Z,99540.41
2022-11-27T11:35:01.782Z,99531.91
2022-11-27T11:37:55.153Z,99527.56
2022-11-27T11:40:31.229Z,99533.28
2022-11-27T11:43:01.635Z,99518.75
2022-11-27T11:45:33.333Z,99515.50
2022-11-27T11:48:24.035Z,99517.69
2022-11-27T11:51:08.558Z,99524.81
2022-11-27T11:53:45.538Z,99522.03
2022-11-27T11:56:32.973Z,99507.19
2022-11-27T11:59:05.728Z,99503.34
2022-11-27T12:02:00.907Z,99496.22
2022-11-27T12:04:57.443Z,99489.00
2022-11-27T12:07:27.905Z,99483.53
2022-11-27T12:10:12.676Z,99481.88
2022-11-27T12:13:04.787Z,99479.72
2022-11-27T12:15:37.321Z,99473.91
2022-11-27T12:18:19.393Z,99470.91
2022-11-27T12:21:11.217Z,99475.09
2022-11-27T12:24:01.667Z,99479.22
2022-11-27T12:27:06.125Z,99469.03
2022-11-27T12:41:59.013Z,99452.88
2022-11-27T12:45:37.002Z,99447.34
2022-11-27T13:05:20.762Z,99428.66
2022-11-27T13:09:19.708Z,99431.97
2022-11-27T13:17:56.648Z,99427.25
2022-11-27T13:34:00.186Z,99417.66
2022-11-27T13:41:59.398Z,99419.03
2022-11-27T13:44:39.480Z,99414.88
2022-11-27T13:51:14.355Z,99404.19
2022-11-27T13:53:42.762Z,99402.53
2022-11-27T13:56:42.972Z,99400.34
2022-11-27T14:03:45.342Z,99391.75
2022-11-27T14:11:14.293Z,99384.03
2022-11-27T14:13:48.628Z,99383.97
2022-11-27T14:17:35.557Z,99383.97
2022-11-27T14:36:22.264Z,99354.34
2022-11-27T14:40:44.128Z,99348.53
2022-11-27T14:50:24.026Z,99338.56
2022-11-27T14:53:21.553Z,99335.00
2022-11-27T14:55:55.473Z,99339.34
2022-11-27T14:58:32.404Z,99339.63
2022-11-27T15:01:02.478Z,99341.53
2022-11-27T15:03:29.768Z,99337.38
2022-11-27T15:06:02.099Z,99331.09
2022-11-27T15:08:31.903Z,99328.84
2022-11-27T15:11:01.038Z,99325.00
2022-11-27T15:13:32.717Z,99327.16
2022-11-27T15:16:17.961Z,99317.00
2022-11-27T15:18:55.356Z,99306.00
2022-11-27T15:21:25.931Z,99298.56
2022-11-27T15:23:54.831Z,99300.44
2022-11-27T15:26:43.416Z,99308.88
2022-11-27T15:29:36.342Z,99299.84
2022-11-27T15:32:03.602Z,99297.09
2022-11-27T15:34:31.021Z,99289.97
2022-11-27T15:37:01.538Z,99292.09
2022-11-27T15:39:45.655Z,99295.91
2022-11-27T15:42:12.580Z,99289.56
2022-11-27T15:44:39.431Z,99287.34
2022-11-27T15:47:06.909Z,99287.31
2022-11-27T15:49:33.643Z,99286.97
2022-11-27T15:52:00.496Z,99282.03
2022-11-27T15:54:28.152Z,99289.63
2022-11-27T15:56:55.120Z,99294.28
2022-11-27T15:59:21.952Z,99294.78
2022-11-27T16:01:49.813Z,99293.13
2022-11-27T16:04:17.615Z,99287.66
2022-11-27T16:06:44.378Z,99284.88
2022-11-27T16:09:11.104Z,99294.72
2022-11-27T16:11:38.821Z,99302.88
2022-11-27T16:14:06.059Z,99283.16
2022-11-27T16:16:33.301Z,99282.34
2022-11-27T16:19:01.360Z,99288.88
2022-11-27T16:21:30.157Z,99279.03
2022-11-27T16:24:02.114Z,99270.00
2022-11-27T16:26:29.594Z,99268.34
2022-11-27T16:28:56.345Z,99266.09
2022-11-27T16:31:24.105Z,99264.97
2022-11-27T16:33:54.330Z,99262.75
2022-11-27T16:36:24.415Z,99256.69
2022-11-27T16:38:55.408Z,99246.03
2022-11-27T16:41:23.680Z,99247.94
2022-11-27T16:43:55.998Z,99238.81
2022-11-27T16:46:28.363Z,99238.81
2022-11-27T16:48:57.397Z,99227.59
2022-11-27T16:51:29.038Z,99219.34
2022-11-27T16:53:58.878Z,99218.44
2022-11-27T16:56:27.581Z,99218.19
2022-11-27T16:58:59.381Z,99224.72
2022-11-27T17:01:34.695Z,99227.44
2022-11-27T17:04:04.876Z,99227.44
2022-11-27T17:06:33.707Z,99236.19
2022-11-27T17:09:02.273Z,99225.47
2022-11-27T17:11:35.486Z,99230.94
2022-11-27T17:14:05.828Z,99228.22
2022-11-27T17:16:33.840Z,99217.53
2022-11-27T17:19:00.823Z,99216.47
2022-11-27T17:21:31.643Z,99210.44
2022-11-27T17:24:00.415Z,99218.00
2022-11-27T17:26:29.717Z,99222.06
2022-11-27T17:28:56.688Z,99213.81
2022-11-27T17:31:31.289Z,99200.69
2022-11-27T17:33:58.695Z,99205.09
2022-11-27T17:36:27.946Z,99193.06
2022-11-27T17:38:54.897Z,99197.66
2022-11-27T17:41:21.696Z,99188.34
2022-11-27T17:43:50.320Z,99192.50
2022-11-27T17:46:20.482Z,99190.59
2022-11-27T17:48:48.556Z,99189.75
2022-11-27T17:51:15.249Z,99185.63
2022-11-27T17:53:41.952Z,99179.31
2022-11-27T17:56:11.896Z,99180.59
2022-11-27T17:58:39.371Z,99164.69
2022-11-27T18:01:08.309Z,99166.88
2022-11-27T18:03:35.024Z,99161.91
2022-11-27T18:06:06.263Z,99163.00
2022-11-27T18:08:33.559Z,99156.38
2022-11-27T18:11:09.263Z,99161.31
2022-11-27T18:13:36.490Z,99156.38
2022-11-27T18:16:05.308Z,99162.66
2022-11-27T18:18:31.993Z,99159.34
2022-11-27T18:20:59.948Z,99144.28
2022-11-27T18:23:27.493Z,99147.28
2022-11-27T18:25:54.366Z,99156.31
2022-11-27T18:28:21.144Z,99153.25
2022-11-27T18:30:47.800Z,99154.56
2022-11-27T18:33:14.448Z,99160.63
2022-11-27T18:35:42.839Z,99161.41
2022-11-27T18:38:09.598Z,99156.44
2022-11-27T18:40:41.171Z,99157.50
2022-11-27T18:43:07.973Z,99155.59
2022-11-27T18:45:36.434Z,99150.06
2022-11-27T18:48:04.633Z,99159.59
2022-11-27T18:50:31.915Z,99156.03
2022-11-27T18:52:58.589Z,99150.56
2022-11-27T18:55:25.962Z,99155.78
2022-11-27T18:57:54.271Z,99150.00
2022-11-27T19:00:21.315Z,99138.75
2022-11-27T19:02:48.147Z,99140.91
2022-11-27T19:05:14.941Z,99137.59
2022-11-27T19:07:43.664Z,99141.34
2022-11-27T19:10:10.696Z,99137.22
2022-11-27T19:12:37.469Z,99127.63
2022-11-27T19:15:06.610Z,99131.19
2022-11-27T19:17:33.621Z,99127.38
2022-11-27T19:20:00.382Z,99125.72
2022-11-27T19:22:27.131Z,99125.22
2022-11-27T19:24:53.884Z,99124.38
2022-11-27T19:27:20.536Z,99124.97
2022-11-27T19:29:47.161Z,99125.78
2022-11-27T19:32:13.914Z,99121.91
2022-11-27T19:34:42.228Z,99130.38
2022-11-27T19:37:09.194Z,99133.09
2022-11-27T19:39:35.866Z,99125.13
2022-11-27T19:42:07.164Z,99128.41
2022-11-27T19:44:34.712Z,99128.06
2022-11-27T19:47:02.074Z,99129.88
2022-11-27T19:49:29.078Z,99126.59
2022-11-27T19:51:55.852Z,99121.06
2022-11-27T19:54:22.693Z,99124.34
2022-11-27T19:56:49.637Z,99121.63
2022-11-27T19:59:19.134Z,99113.50
2022-11-27T20:01:48.186Z,99111.84
2022-11-27T20:04:15.689Z,99110.69
2022-11-27T20:06:42.416Z,99114.50
2022-11-27T20:09:09.103Z,99114.19
2022-11-27T20:11:36.476Z,99116.91
2022-11-27T20:14:04.391Z,99117.16
2022-11-27T20:16:32.959Z,99117.66
2022-11-27T20:19:08.758Z,99112.94
2022-11-27T20:21:37.509Z,99113.22
2022-11-27T20:24:06.480Z,99122.97
2022-11-27T20:26:37.210Z,99116.13
2022-11-27T20:29:06.948Z,99111.78
2022-11-27T20:31:36.106Z,99118.66
2022-11-27T20:34:04.976Z,99096.28
2022-11-27T20:36:33.852Z,99107.59
2022-11-27T20:39:01.196Z,99106.44
2022-11-27T20:41:28.407Z,99117.84
2022-11-27T20:43:58.127Z,99120.84
2022-11-27T20:46:26.418Z,99127.38
2022-11-27T20:48:54.044Z,99124.66
2022-11-27T20:51:25.218Z,99128.78
2022-11-27T20:53:51.918Z,99122.66
2022-11-27T20:56:20.336Z,99122.81
2022-11-27T20:58:58.139Z,99119.44
2022-11-27T21:01:31.935Z,99121.84
2022-11-27T21:04:01.234Z,99126.47
2022-11-27T21:06:30.629Z,99125.13
2022-11-27T21:09:00.899Z,99127.84
2022-11-27T21:11:29.169Z,99135.56
2022-11-27T21:14:01.379Z,99132.75
2022-11-27T21:16:32.088Z,99124.47
2022-11-27T21:19:00.703Z,99119.50
2022-11-27T21:21:35.104Z,99110.91
2022-11-27T21:24:03.605Z,99107.34
2022-11-27T21:26:30.355Z,99112.25
2022-11-27T21:28:57.034Z,99125.63
2022-11-27T21:31:26.678Z,99126.69
2022-11-27T21:33:58.353Z,99131.56
2022-11-27T21:36:28.068Z,99120.91
2022-11-27T21:38:54.836Z,99121.63
2022-11-27T21:41:21.917Z,99126.34
2022-11-27T21:43:49.549Z,99125.75
2022-11-27T21:46:19.079Z,99120.22
2022-11-27T21:48:47.755Z,99115.09
2022-11-27T21:51:15.468Z,99119.75
2022-11-27T21:53:43.968Z,99123.19
2022-11-27T21:56:14.038Z,99110.31
2022-11-27T21:58:41.537Z,99114.13
2022-11-27T22:01:12.210Z,99099.88
2022-11-27T22:03:42.462Z,99102.63
2022-11-27T22:06:12.835Z,99102.88
2022-11-27T22:08:40.578Z,99101.78
2022-11-27T22:11:13.712Z,99102.25
2022-11-27T22:13:41.566Z,99087.25
2022-11-27T22:16:10.547Z,99083.09
2022-11-27T22:18:37.290Z,99072.47
2022-11-27T22:21:08.272Z,99069.66
2022-11-27T22:23:37.283Z,99063.50
2022-11-27T22:26:05.986Z,99054.16
2022-11-27T22:28:34.897Z,99060.69
2022-11-27T22:31:08.034Z,99048.63
2022-11-27T22:33:37.020Z,99051.94
2022-11-27T22:36:25.132Z,99047.81
2022-11-27T22:38:54.349Z,99045.91
2022-11-27T22:41:24.167Z,99048.06
2022-11-27T22:43:51.581Z,99046.97
2022-11-27T22:46:25.469Z,99055.75
2022-11-27T22:48:58.264Z,99053.25
2022-11-27T22:51:26.927Z,99051.69
2022-11-27T22:53:54.904Z,99056.88
2022-11-27T22:56:21.781Z,99062.94
2022-11-27T22:58:48.440Z,99054.03
2022-11-27T23:01:18.426Z,99058.00
2022-11-27T23:03:45.499Z,99054.47
2022-11-27T23:06:14.611Z,99043.03
2022-11-27T23:08:43.604Z,99058.19
2022-11-27T23:11:13.806Z,99048.91
2022-11-27T23:13:43.855Z,99043.72
2022-11-27T23:16:15.704Z,99048.09
2022-11-27T23:18:42.444Z,99040.50
2022-11-27T23:21:14.497Z,99037.28
2022-11-27T23:23:41.843Z,99039.44
2022-11-27T23:26:17.397Z,99040.59
2022-11-27T23:28:45.727Z,99045.72
2022-11-27T23:31:33.610Z,99045.97
2022-11-27T23:34:02.121Z,99038.44
2022-11-27T23:36:30.016Z,99035.63
2022-11-27T23:39:01.871Z,99033.16
2022-11-27T23:41:29.188Z,99019.28
2022-11-27T23:43:58.084Z,99026.38
2022-11-27T23:46:27.491Z,99017.38
2022-11-27T23:48:57.838Z,99009.44
2022-11-27T23:51:27.976Z,99008.38
2022-11-27T23:53:57.365Z,99001.53
2022-11-27T23:56:27.157Z,98996.38
2022-11-27T23:58:54.975Z,98985.47
